createdAt,value
2022-11-10T00:00:00.789Z,8.4
2022-11-10T00:05:00.790Z,8.5
2022-11-10T00:10:00.818Z,8.5
2022-11-10T00:15:00.882Z,8.5
2022-11-10T00:20:00.864Z,8.5
2022-11-10T00:25:00.767Z,8.6
2022-11-10T00:30:00.762Z,8.5
2022-11-10T00:35:00.835Z,8.5
2022-11-10T00:40:00.777Z,8.6
2022-11-10T00:45:00.792Z,8.6
2022-11-10T00:50:00.797Z,8.6
2022-11-10T00:55:00.777Z,8.6
2022-11-10T01:00:00.781Z,8.7
2022-11-10T01:05:00.776Z,8.7
2022-11-10T01:10:00.834Z,8.7
2022-11-10T01:15:00.784Z,8.7
2022-11-10T01:20:00.794Z,8.7
2022-11-10T01:25:00.582Z,8.8
2022-11-10T01:30:00.857Z,8.8
2022-11-10T01:35:00.603Z,8.8
2022-11-10T01:40:00.968Z,8.8
2022-11-10T01:45:00.600Z,8.8
2022-11-10T01:50:00.806Z,8.8
2022-11-10T01:55:00.575Z,8.8
2022-11-10T02:00:00.836Z,8.8
2022-11-10T02:05:00.817Z,8.8
2022-11-10T02:10:00.849Z,8.7
2022-11-10T02:15:00.835Z,8.7
2022-11-10T02:20:00.592Z,8.7
2022-11-10T02:25:00.528Z,8.7
2022-11-10T02:30:00.931Z,8.6
2022-11-10T02:35:00.831Z,8.7
2022-11-10T02:40:00.824Z,8.6
2022-11-10T02:45:00.793Z,8.6
2022-11-10T02:50:00.779Z,8.6
2022-11-10T02:55:00.832Z,8.7
2022-11-10T03:00:00.871Z,8.7
2022-11-10T03:05:00.817Z,8.7
2022-11-10T03:10:00.787Z,8.7
2022-11-10T03:15:00.837Z,8.6
2022-11-10T03:20:00.790Z,8.6
2022-11-10T03:25:00.811Z,8.6
2022-11-10T03:30:00.917Z,8.6
2022-11-10T03:35:00.848Z,8.6
2022-11-10T03:40:00.799Z,8.6
2022-11-10T03:45:00.863Z,8.6
2022-11-10T03:50:00.864Z,8.6
2022-11-10T03:55:03.251Z,8.6
2022-11-10T04:00:00.802Z,8.6
2022-11-10T04:05:00.843Z,8.5
2022-11-10T04:10:00.858Z,8.5
2022-11-10T04:15:00.809Z,8.4
2022-11-10T04:20:00.828Z,8.4
2022-11-10T04:25:00.901Z,8.3
2022-11-10T04:30:00.837Z,8.2
2022-11-10T04:35:00.802Z,8.1
2022-11-10T04:40:00.830Z,8.1
2022-11-10T04:45:00.817Z,8.1
2022-11-10T04:50:00.827Z,8
2022-11-10T04:55:00.831Z,7.9
2022-11-10T05:00:00.803Z,7.9
2022-11-10T05:05:00.851Z,7.9
2022-11-10T05:10:00.781Z,7.8
2022-11-10T05:15:00.829Z,7.7
2022-11-10T05:20:00.816Z,7.7
2022-11-10T05:25:00.800Z,7.5
2022-11-10T05:30:00.817Z,7.4
2022-11-10T05:35:00.786Z,7.4
2022-11-10T05:40:00.763Z,7.4
2022-11-10T05:45:00.812Z,7.4
2022-11-10T05:50:00.818Z,7.3
2022-11-10T05:55:00.831Z,7.3
2022-11-10T06:00:00.814Z,7.2
2022-11-10T06:05:00.819Z,7.1
2022-11-10T06:10:00.793Z,7
2022-11-10T06:15:00.821Z,6.9
2022-11-10T06:20:00.781Z,6.9
2022-11-10T06:25:00.811Z,6.9
2022-11-10T06:30:00.841Z,6.9
2022-11-10T06:35:01.059Z,6.9
2022-11-10T06:40:00.799Z,6.9
2022-11-10T06:45:00.776Z,6.8
2022-11-10T06:50:00.782Z,6.8
2022-11-10T06:55:00.877Z,6.7
2022-11-10T07:00:00.808Z,6.6
2022-11-10T07:05:00.794Z,6.6
2022-11-10T07:10:05.765Z,6.6
2022-11-10T07:15:00.792Z,6.6
2022-11-10T07:20:00.788Z,6.8
2022-11-10T07:25:00.835Z,6.9
2022-11-10T07:30:00.857Z,7
2022-11-10T07:35:00.935Z,7
2022-11-10T07:40:00.766Z,7.1
2022-11-10T07:45:00.812Z,7.3
2022-11-10T07:50:00.857Z,7.3
2022-11-10T07:55:00.907Z,7.4
2022-11-10T08:00:00.879Z,7.5
2022-11-10T08:05:00.810Z,7.7
2022-11-10T08:10:00.886Z,7.8
2022-11-10T08:15:00.848Z,8
2022-11-10T08:20:00.812Z,8.1
2022-11-10T08:25:00.793Z,8.4
2022-11-10T08:30:00.767Z,8.4
2022-11-10T08:35:00.799Z,8.5
2022-11-10T08:40:00.929Z,8.4
2022-11-10T08:45:00.789Z,8.5
2022-11-10T08:50:00.806Z,8.5
2022-11-10T08:55:00.971Z,8.5
2022-11-10T09:00:00.869Z,8.5
2022-11-10T09:05:00.756Z,8.5
2022-11-10T09:10:07.004Z,8.6
2022-11-10T09:15:00.797Z,8.7
2022-11-10T09:20:00.852Z,8.8
2022-11-10T09:25:00.745Z,8.9
2022-11-10T09:30:00.798Z,8.9
2022-11-10T09:35:00.786Z,8.9
2022-11-10T09:40:01.483Z,8.9
2022-11-10T09:45:00.795Z,9.1
2022-11-10T09:50:00.807Z,9.4
2022-11-10T09:55:00.828Z,9.4
2022-11-10T10:00:00.876Z,9.5
2022-11-10T10:05:00.799Z,9.4
2022-11-10T10:10:00.799Z,9.1
2022-11-10T10:15:00.812Z,9
2022-11-10T10:20:00.784Z,9
2022-11-10T10:25:00.906Z,9
2022-11-10T10:30:00.914Z,8.9
2022-11-10T10:35:00.806Z,9
2022-11-10T10:40:00.807Z,8.9
2022-11-10T10:45:00.841Z,8.9
2022-11-10T10:50:00.774Z,8.9
2022-11-10T10:55:00.799Z,8.9
2022-11-10T11:00:00.818Z,9
2022-11-10T11:05:00.814Z,9
2022-11-10T11:10:00.805Z,9
2022-11-10T11:15:00.801Z,9.1
2022-11-10T11:20:00.816Z,9.1
2022-11-10T11:25:00.814Z,8.8
2022-11-10T11:30:00.925Z,8.8
2022-11-10T11:35:00.860Z,8.7
2022-11-10T11:40:00.802Z,8.8
2022-11-10T11:45:00.745Z,8.8
2022-11-10T11:50:00.808Z,8.8
2022-11-10T11:55:00.815Z,8.9
2022-11-10T12:00:00.817Z,9
2022-11-10T12:05:00.753Z,9.1
2022-11-10T12:10:00.786Z,9.2
2022-11-10T12:15:00.902Z,9.1
2022-11-10T12:20:00.763Z,9.1
2022-11-10T12:25:00.805Z,9.2
2022-11-10T12:30:00.851Z,9.1
2022-11-10T12:35:00.828Z,8.9
2022-11-10T12:40:00.805Z,8.6
2022-11-10T12:45:00.778Z,8.9
2022-11-10T12:50:00.887Z,8.9
2022-11-10T12:55:00.754Z,9.1
2022-11-10T13:00:00.763Z,9.2
2022-11-10T13:05:00.835Z,9
2022-11-10T13:10:00.798Z,9
2022-11-10T13:15:00.785Z,9.1
2022-11-10T13:20:20.699Z,9
2022-11-10T13:25:00.852Z,8.9
2022-11-10T13:30:00.800Z,9
2022-11-10T13:35:00.783Z,9.1
2022-11-10T13:40:00.833Z,9
2022-11-10T13:45:00.588Z,8.8
2022-11-10T13:50:00.763Z,8.7
2022-11-10T13:55:01.000Z,8.8
2022-11-10T14:00:00.757Z,8.8
2022-11-10T14:05:00.785Z,8.8
2022-11-10T14:10:00.826Z,8.8
2022-11-10T14:15:00.814Z,8.8
2022-11-10T14:20:00.835Z,9.1
2022-11-10T14:25:00.792Z,9
2022-11-10T14:30:00.831Z,8.8
2022-11-10T14:35:00.795Z,9
2022-11-10T14:40:00.795Z,8.8
2022-11-10T14:45:00.587Z,8.7
2022-11-10T14:50:00.837Z,8.7
2022-11-10T14:55:00.792Z,8.7
2022-11-10T15:00:00.811Z,8.8
2022-11-10T15:05:00.817Z,8.8
2022-11-10T15:10:00.810Z,8.8
2022-11-10T15:15:00.830Z,8.7
2022-11-10T15:20:00.773Z,8.6
2022-11-10T15:25:00.776Z,8.5
2022-11-10T15:30:00.804Z,8.5
2022-11-10T15:35:01.057Z,8.4
2022-11-10T15:40:00.587Z,8.4
2022-11-10T15:45:00.820Z,8.3
2022-11-10T15:50:00.816Z,8.2
2022-11-10T15:55:00.803Z,8.1
2022-11-10T16:00:00.840Z,8
2022-11-10T16:05:00.790Z,7.9
2022-11-10T16:10:00.800Z,7.9
2022-11-10T16:15:00.756Z,7.8
2022-11-10T16:20:00.847Z,7.6
2022-11-10T16:25:00.802Z,7.6
2022-11-10T16:30:00.803Z,7.6
2022-11-10T16:35:00.794Z,7.5
2022-11-10T16:40:00.919Z,7.5
2022-11-10T16:45:00.786Z,7.6
2022-11-10T16:50:00.793Z,7.5
2022-11-10T16:55:00.804Z,7.4
2022-11-10T17:00:00.786Z,7.4
2022-11-10T17:05:00.827Z,7.3
2022-11-10T17:10:00.790Z,7.3
2022-11-10T17:15:00.788Z,7.4
2022-11-10T17:20:00.773Z,7.4
2022-11-10T17:25:00.772Z,7.4
2022-11-10T17:30:00.739Z,7.3
2022-11-10T17:35:00.772Z,7.2
2022-11-10T17:40:00.802Z,7.1
2022-11-10T17:45:00.799Z,7.3
2022-11-10T17:50:00.850Z,7.3
2022-11-10T17:55:00.795Z,7.3
2022-11-10T18:00:00.815Z,7.3
2022-11-10T18:05:00.792Z,7.2
2022-11-10T18:10:00.753Z,7.2
2022-11-10T18:15:00.736Z,7.2
2022-11-10T18:20:00.821Z,7.2
2022-11-10T18:25:00.803Z,7.1
2022-11-10T18:30:00.848Z,7.1
2022-11-10T18:35:00.802Z,7.1
2022-11-10T18:40:00.781Z,7
2022-11-10T18:45:00.846Z,7
2022-11-10T18:50:00.809Z,6.9
2022-11-10T18:55:00.780Z,6.8
2022-11-10T19:00:00.865Z,6.8
2022-11-10T19:05:00.779Z,6.7
2022-11-10T19:10:00.864Z,6.7
2022-11-10T19:15:00.860Z,6.6
2022-11-10T19:20:00.818Z,6.7
2022-11-10T19:25:08.790Z,6.9
2022-11-10T19:30:00.821Z,7
2022-11-10T19:35:00.799Z,6.9
2022-11-10T19:40:00.881Z,6.9
2022-11-10T19:45:00.791Z,6.9
2022-11-10T19:50:00.810Z,7.1
2022-11-10T19:55:00.828Z,7.1
2022-11-10T20:00:00.779Z,7
2022-11-10T20:05:00.807Z,7
2022-11-10T20:10:00.824Z,7
2022-11-10T20:15:00.899Z,6.9
2022-11-10T20:20:00.806Z,6.8
2022-11-10T20:25:00.844Z,6.7
2022-11-10T20:30:00.768Z,6.7
2022-11-10T20:35:00.811Z,6.6
2022-11-10T20:40:00.924Z,6.8
2022-11-10T20:45:00.799Z,6.6
2022-11-10T20:50:00.779Z,6.6
2022-11-10T20:55:00.860Z,6.6
2022-11-10T21:00:00.777Z,6.8
2022-11-10T21:05:00.900Z,6.8
2022-11-10T21:10:00.830Z,6.7
2022-11-10T21:15:00.785Z,6.7
2022-11-10T21:20:00.802Z,6.7
2022-11-10T21:25:00.848Z,6.6
2022-11-10T21:30:00.790Z,6.5
2022-11-10T21:35:00.779Z,6.5
2022-11-10T21:40:00.797Z,6.3
2022-11-10T21:45:00.786Z,6.3
2022-11-10T21:50:00.809Z,6.2
2022-11-10T21:55:00.829Z,6.2
2022-11-10T22:00:00.796Z,6.2
2022-11-10T22:05:00.786Z,6.2
2022-11-10T22:10:00.812Z,6.1
2022-11-10T22:15:00.862Z,6.1
2022-11-10T22:20:00.795Z,6.1
2022-11-10T22:25:00.603Z,6.1
2022-11-10T22:30:00.813Z,6.1
2022-11-10T22:35:00.850Z,6.1
2022-11-10T22:40:00.568Z,6.2
2022-11-10T22:45:00.894Z,6.2
2022-11-10T22:50:00.872Z,6.2
2022-11-10T22:55:00.748Z,6.2
2022-11-10T23:00:00.785Z,6.3
2022-11-10T23:05:00.843Z,6.3
2022-11-10T23:10:00.609Z,6.2
2022-11-10T23:15:00.506Z,6.2
2022-11-10T23:20:00.763Z,6.2
2022-11-10T23:25:00.798Z,6.3
2022-11-10T23:30:00.739Z,6.3
2022-11-10T23:35:00.823Z,6.4
2022-11-10T23:40:00.796Z,6.4
2022-11-10T23:45:00.798Z,6.5
2022-11-10T23:50:00.752Z,6.5
2022-11-10T23:55:00.774Z,6.5
